sensor_id;sensor_type;location;lat;lon;timestamp;temperature;humidity
33067;DHT22;19428;49.024;8.366;2024-01-15T00:02:13;-1.10;99.90
33067;DHT22;19428;49.024;8.366;2024-01-15T00:04:40;-1.10;99.90
33067;DHT22;19428;49.024;8.366;2024-01-15T00:07:09;-1.10;99.90
33067;DHT22;19428;49.024;8.366;2024-01-15T00:09:35;-1.10;99.90
33067;DHT22;19428;49.024;8.366;2024-01-15T00:12:01;-1.10;99.90
33067;DHT22;19428;49.024;8.366;2024-01-15T00:14:27;-1.10;99.90
33067;DHT22;19428;49.024;8.366;2024-01-15T00:16:53;-1.10;99.90
33067;DHT22;19428;49.024;8.366;2024-01-15T00:19:21;-1.10;99.90
33067;DHT22;19428;49.024;8.366;2024-01-15T00:21:47;-1.10;99.90
33067;DHT22;19428;49.024;8.366;2024-01-15T00:24:13;-1.10;99.90
33067;DHT22;19428;49.024;8.366;2024-01-15T00:26:39;-1.00;99.90
33067;DHT22;19428;49.024;8.366;2024-01-15T00:29:06;-1.10;99.90
33067;DHT22;19428;49.024;8.366;2024-01-15T00:31:32;-1.00;99.90
33067;DHT22;19428;49.024;8.366;2024-01-15T00:33:57;-1.10;99.90
33067;DHT22;19428;49.024;8.366;2024-01-15T00:36:23;-1.10;99.90
33067;DHT22;19428;49.024;8.366;2024-01-15T00:38:49;-1.10;99.90
33067;DHT22;19428;49.024;8.366;2024-01-15T00:41:15;-1.10;99.90
33067;DHT22;19428;49.024;8.366;2024-01-15T00:43:40;-1.10;99.90
33067;DHT22;19428;49.024;8.366;2024-01-15T00:46:06;-1.10;99.90
33067;DHT22;19428;49.024;8.366;2024-01-15T00:48:32;-1.10;99.90
33067;DHT22;19428;49.024;8.366;2024-01-15T00:50:58;-1.10;99.90
33067;DHT22;19428;49.024;8.366;2024-01-15T00:53:23;-1.10;99.90
33067;DHT22;19428;49.024;8.366;2024-01-15T00:55:49;-1.10;99.90
33067;DHT22;19428;49.024;8.366;2024-01-15T00:58:15;-1.10;99.90
33067;DHT22;19428;49.024;8.366;2024-01-15T01:00:41;-1.10;99.90
33067;DHT22;19428;49.024;8.366;2024-01-15T01:03:06;-1.10;99.90
33067;DHT22;19428;49.024;8.366;2024-01-15T01:05:33;-1.10;99.90
33067;DHT22;19428;49.024;8.366;2024-01-15T01:07:59;-1.20;99.90
33067;DHT22;19428;49.024;8.366;2024-01-15T01:10:25;-1.20;99.90
33067;DHT22;19428;49.024;8.366;2024-01-15T01:12:50;-1.20;99.90
33067;DHT22;19428;49.024;8.366;2024-01-15T01:15:16;-1.20;99.90
33067;DHT22;19428;49.024;8.366;2024-01-15T01:17:42;-1.20;99.90
33067;DHT22;19428;49.024;8.366;2024-01-15T01:20:08;-1.20;99.90
33067;DHT22;19428;49.024;8.366;2024-01-15T01:22:35;-1.20;99.90
33067;DHT22;19428;49.024;8.366;2024-01-15T01:25:00;-1.20;99.90
33067;DHT22;19428;49.024;8.366;2024-01-15T01:27:26;-1.20;99.90
33067;DHT22;19428;49.024;8.366;2024-01-15T01:29:51;-1.20;99.90
33067;DHT22;19428;49.024;8.366;2024-01-15T01:32:17;-1.20;99.90
33067;DHT22;19428;49.024;8.366;2024-01-15T01:34:43;-1.20;99.90
33067;DHT22;19428;49.024;8.366;2024-01-15T01:37:09;-1.20;99.90
33067;DHT22;19428;49.024;8.366;2024-01-15T01:39:35;-1.20;99.90
33067;DHT22;19428;49.024;8.366;2024-01-15T01:42:01;-1.20;99.90
33067;DHT22;19428;49.024;8.366;2024-01-15T01:44:26;-1.20;99.90
33067;DHT22;19428;49.024;8.366;2024-01-15T01:46:52;-1.20;99.90
33067;DHT22;19428;49.024;8.366;2024-01-15T01:49:18;-1.20;99.90
33067;DHT22;19428;49.024;8.366;2024-01-15T01:51:44;-1.10;99.90
33067;DHT22;19428;49.024;8.366;2024-01-15T01:54:10;-1.10;99.90
33067;DHT22;19428;49.024;8.366;2024-01-15T01:56:39;-1.10;99.90
33067;DHT22;19428;49.024;8.366;2024-01-15T01:59:06;-1.10;99.90
33067;DHT22;19428;49.024;8.366;2024-01-15T02:01:32;-1.10;99.90
33067;DHT22;19428;49.024;8.366;2024-01-15T02:03:58;-1.10;99.90
33067;DHT22;19428;49.024;8.366;2024-01-15T02:06:25;-1.10;99.90
33067;DHT22;19428;49.024;8.366;2024-01-15T02:08:51;-1.00;99.90
33067;DHT22;19428;49.024;8.366;2024-01-15T02:11:16;-1.10;99.90
33067;DHT22;19428;49.024;8.366;2024-01-15T02:13:42;-1.10;99.90
33067;DHT22;19428;49.024;8.366;2024-01-15T02:16:08;-1.10;99.90
33067;DHT22;19428;49.024;8.366;2024-01-15T02:18:44;-1.10;99.90
33067;DHT22;19428;49.024;8.366;2024-01-15T02:21:11;-1.00;99.90
33067;DHT22;19428;49.024;8.366;2024-01-15T02:23:37;-1.00;99.90
33067;DHT22;19428;49.024;8.366;2024-01-15T02:26:04;-1.00;99.90
33067;DHT22;19428;49.024;8.366;2024-01-15T02:28:30;-1.00;99.90
33067;DHT22;19428;49.024;8.366;2024-01-15T02:30:56;-1.00;99.90
33067;DHT22;19428;49.024;8.366;2024-01-15T02:33:22;-1.00;99.90
33067;DHT22;19428;49.024;8.366;2024-01-15T02:35:47;-1.00;99.90
33067;DHT22;19428;49.024;8.366;2024-01-15T02:38:15;-1.00;99.90
33067;DHT22;19428;49.024;8.366;2024-01-15T02:40:43;-1.00;99.90
33067;DHT22;19428;49.024;8.366;2024-01-15T02:43:08;-1.00;99.90
33067;DHT22;19428;49.024;8.366;2024-01-15T02:45:34;-0.90;99.90
33067;DHT22;19428;49.024;8.366;2024-01-15T02:47:59;-0.90;99.90
33067;DHT22;19428;49.024;8.366;2024-01-15T02:50:25;-1.00;99.90
33067;DHT22;19428;49.024;8.366;2024-01-15T02:52:51;-0.90;99.90
33067;DHT22;19428;49.024;8.366;2024-01-15T02:55:16;-0.90;99.90
33067;DHT22;19428;49.024;8.366;2024-01-15T02:57:42;-0.90;99.90
33067;DHT22;19428;49.024;8.366;2024-01-15T03:00:08;-0.90;99.90
33067;DHT22;19428;49.024;8.366;2024-01-15T03:02:37;-0.80;99.90
33067;DHT22;19428;49.024;8.366;2024-01-15T03:05:08;-0.80;99.90
33067;DHT22;19428;49.024;8.366;2024-01-15T03:07:33;-0.80;99.90
33067;DHT22;19428;49.024;8.366;2024-01-15T03:09:59;-0.80;99.90
33067;DHT22;19428;49.024;8.366;2024-01-15T03:12:25;-0.80;99.90
33067;DHT22;19428;49.024;8.366;2024-01-15T03:14:50;-0.80;99.90
33067;DHT22;19428;49.024;8.366;2024-01-15T03:17:16;-0.80;99.90
33067;DHT22;19428;49.024;8.366;2024-01-15T03:19:41;-0.80;99.90
33067;DHT22;19428;49.024;8.366;2024-01-15T03:22:07;-0.80;99.90
33067;DHT22;19428;49.024;8.366;2024-01-15T03:24:34;-0.80;99.90
33067;DHT22;19428;49.024;8.366;2024-01-15T03:27:00;-0.80;99.90
33067;DHT22;19428;49.024;8.366;2024-01-15T03:29:26;-0.70;99.90
33067;DHT22;19428;49.024;8.366;2024-01-15T03:31:52;-0.70;99.90
33067;DHT22;19428;49.024;8.366;2024-01-15T03:34:17;-0.70;99.90
33067;DHT22;19428;49.024;8.366;2024-01-15T03:36:43;-0.70;99.90
33067;DHT22;19428;49.024;8.366;2024-01-15T03:39:08;-0.70;99.90
33067;DHT22;19428;49.024;8.366;2024-01-15T03:41:35;-0.70;99.90
33067;DHT22;19428;49.024;8.366;2024-01-15T03:44:01;-0.70;99.90
33067;DHT22;19428;49.024;8.366;2024-01-15T03:46:27;-0.60;99.90
33067;DHT22;19428;49.024;8.366;2024-01-15T03:48:52;-0.60;99.90
33067;DHT22;19428;49.024;8.366;2024-01-15T03:51:18;-0.60;99.90
33067;DHT22;19428;49.024;8.366;2024-01-15T03:53:44;-0.60;99.90
33067;DHT22;19428;49.024;8.366;2024-01-15T03:56:10;-0.60;99.90
33067;DHT22;19428;49.024;8.366;2024-01-15T03:58:35;-0.60;99.90
33067;DHT22;19428;49.024;8.366;2024-01-15T04:01:01;-0.60;99.90
33067;DHT22;19428;49.024;8.366;2024-01-15T04:03:27;-0.60;99.90
33067;DHT22;19428;49.024;8.366;2024-01-15T04:05:52;-0.60;99.90
33067;DHT22;19428;49.024;8.366;2024-01-15T04:08:18;-0.60;99.90
33067;DHT22;19428;49.024;8.366;2024-01-15T04:10:43;-0.50;99.90
33067;DHT22;19428;49.024;8.366;2024-01-15T04:13:09;-0.50;99.90
33067;DHT22;19428;49.024;8.366;2024-01-15T04:15:34;-0.50;99.90
33067;DHT22;19428;49.024;8.366;2024-01-15T04:18:01;-0.50;99.90
33067;DHT22;19428;49.024;8.366;2024-01-15T04:20:27;-0.50;99.90
33067;DHT22;19428;49.024;8.366;2024-01-15T04:22:53;-0.50;99.90
33067;DHT22;19428;49.024;8.366;2024-01-15T04:25:18;-0.50;99.90
33067;DHT22;19428;49.024;8.366;2024-01-15T04:27:44;-0.50;99.90
33067;DHT22;19428;49.024;8.366;2024-01-15T04:30:10;-0.50;99.90
33067;DHT22;19428;49.024;8.366;2024-01-15T04:32:35;-0.50;99.90
33067;DHT22;19428;49.024;8.366;2024-01-15T04:35:01;-0.50;99.90
33067;DHT22;19428;49.024;8.366;2024-01-15T04:37:27;-0.60;99.90
33067;DHT22;19428;49.024;8.366;2024-01-15T04:39:52;-0.60;99.90
33067;DHT22;19428;49.024;8.366;2024-01-15T04:42:22;-0.60;99.90
33067;DHT22;19428;49.024;8.366;2024-01-15T04:44:48;-0.60;99.90
33067;DHT22;19428;49.024;8.366;2024-01-15T04:47:13;-0.60;99.90
33067;DHT22;19428;49.024;8.366;2024-01-15T04:49:39;-0.70;99.90
33067;DHT22;19428;49.024;8.366;2024-01-15T04:52:04;-0.60;99.90
33067;DHT22;19428;49.024;8.366;2024-01-15T04:54:30;-0.60;99.90
33067;DHT22;19428;49.024;8.366;2024-01-15T04:56:56;-0.60;99.90
33067;DHT22;19428;49.024;8.366;2024-01-15T04:59:21;-0.60;99.90
33067;DHT22;19428;49.024;8.366;2024-01-15T05:01:47;-0.60;99.90
33067;DHT22;19428;49.024;8.366;2024-01-15T05:04:14;-0.60;99.90
33067;DHT22;19428;49.024;8.366;2024-01-15T05:06:40;-0.60;99.90
33067;DHT22;19428;49.024;8.366;2024-01-15T05:09:05;-0.60;99.90
33067;DHT22;19428;49.024;8.366;2024-01-15T05:11:31;-0.50;99.90
33067;DHT22;19428;49.024;8.366;2024-01-15T05:13:56;-0.50;99.90
33067;DHT22;19428;49.024;8.366;2024-01-15T05:16:22;-0.50;99.90
33067;DHT22;19428;49.024;8.366;2024-01-15T05:18:47;-0.50;99.90
33067;DHT22;19428;49.024;8.366;2024-01-15T05:21:13;-0.50;99.90
33067;DHT22;19428;49.024;8.366;2024-01-15T05:23:39;-0.40;99.90
33067;DHT22;19428;49.024;8.366;2024-01-15T05:26:04;-0.40;99.90
33067;DHT22;19428;49.024;8.366;2024-01-15T05:28:30;-0.40;99.90
33067;DHT22;19428;49.024;8.366;2024-01-15T05:30:55;-0.40;99.90
33067;DHT22;19428;49.024;8.366;2024-01-15T05:33:23;-0.40;99.90
33067;DHT22;19428;49.024;8.366;2024-01-15T05:35:48;-0.40;99.90
33067;DHT22;19428;49.024;8.366;2024-01-15T05:38:16;-0.40;99.90
33067;DHT22;19428;49.024;8.366;2024-01-15T05:40:41;-0.40;99.90
33067;DHT22;19428;49.024;8.366;2024-01-15T05:43:07;-0.40;99.90
33067;DHT22;19428;49.024;8.366;2024-01-15T05:45:34;-0.40;99.90
33067;DHT22;19428;49.024;8.366;2024-01-15T05:48:00;-0.40;99.90
33067;DHT22;19428;49.024;8.366;2024-01-15T05:50:26;-0.40;99.90
33067;DHT22;19428;49.024;8.366;2024-01-15T05:52:52;-0.40;99.90
33067;DHT22;19428;49.024;8.366;2024-01-15T05:55:17;-0.40;99.90
33067;DHT22;19428;49.024;8.366;2024-01-15T05:57:44;-0.40;99.90
33067;DHT22;19428;49.024;8.366;2024-01-15T06:00:11;-0.40;99.90
33067;DHT22;19428;49.024;8.366;2024-01-15T06:02:39;-0.40;99.90
33067;DHT22;19428;49.024;8.366;2024-01-15T06:05:05;-0.40;99.90
33067;DHT22;19428;49.024;8.366;2024-01-15T06:07:32;-0.30;99.90
33067;DHT22;19428;49.024;8.366;2024-01-15T06:09:57;-0.30;99.90
33067;DHT22;19428;49.024;8.366;2024-01-15T06:12:23;-0.30;99.90
33067;DHT22;19428;49.024;8.366;2024-01-15T06:14:48;-0.40;99.90
33067;DHT22;19428;49.024;8.366;2024-01-15T06:17:14;-0.30;99.90
33067;DHT22;19428;49.024;8.366;2024-01-15T06:19:39;-0.30;99.90
33067;DHT22;19428;49.024;8.366;2024-01-15T06:22:05;-0.30;99.90
33067;DHT22;19428;49.024;8.366;2024-01-15T06:24:31;-0.30;99.90
33067;DHT22;19428;49.024;8.366;2024-01-15T06:26:56;-0.30;99.90
33067;DHT22;19428;49.024;8.366;2024-01-15T06:29:24;-0.30;99.90
33067;DHT22;19428;49.024;8.366;2024-01-15T06:31:50;-0.30;99.90
33067;DHT22;19428;49.024;8.366;2024-01-15T06:34:16;-0.30;99.90
33067;DHT22;19428;49.024;8.366;2024-01-15T06:36:41;-0.20;99.90
33067;DHT22;19428;49.024;8.366;2024-01-15T06:39:07;-0.20;99.90
33067;DHT22;19428;49.024;8.366;2024-01-15T06:41:32;-0.10;99.90
33067;DHT22;19428;49.024;8.366;2024-01-15T06:43:58;-0.10;99.90
33067;DHT22;19428;49.024;8.366;2024-01-15T06:46:24;-0.20;99.90
33067;DHT22;19428;49.024;8.366;2024-01-15T06:48:49;-0.20;99.90
33067;DHT22;19428;49.024;8.366;2024-01-15T06:51:16;-0.10;99.90
33067;DHT22;19428;49.024;8.366;2024-01-15T06:53:41;-0.10;99.90
33067;DHT22;19428;49.024;8.366;2024-01-15T06:56:07;-0.10;99.90
33067;DHT22;19428;49.024;8.366;2024-01-15T06:58:33;-0.10;99.90
33067;DHT22;19428;49.024;8.366;2024-01-15T07:00:59;0.00;99.90
33067;DHT22;19428;49.024;8.366;2024-01-15T07:03:25;-0.10;99.90
33067;DHT22;19428;49.024;8.366;2024-01-15T07:05:50;-0.20;99.90
33067;DHT22;19428;49.024;8.366;2024-01-15T07:08:16;-0.10;99.90
33067;DHT22;19428;49.024;8.366;2024-01-15T07:10:41;-0.10;99.90
33067;DHT22;19428;49.024;8.366;2024-01-15T07:13:07;-0.10;99.90
33067;DHT22;19428;49.024;8.366;2024-01-15T07:15:33;-0.10;99.90
33067;DHT22;19428;49.024;8.366;2024-01-15T07:17:58;-0.10;99.90
33067;DHT22;19428;49.024;8.366;2024-01-15T07:20:24;-0.10;99.90
33067;DHT22;19428;49.024;8.366;2024-01-15T07:22:50;-0.10;99.90
33067;DHT22;19428;49.024;8.366;2024-01-15T07:25:16;-0.10;99.90
33067;DHT22;19428;49.024;8.366;2024-01-15T07:27:41;-0.10;99.90
33067;DHT22;19428;49.024;8.366;2024-01-15T07:30:13;-0.10;99.90
33067;DHT22;19428;49.024;8.366;2024-01-15T07:32:38;0.00;99.90
33067;DHT22;19428;49.024;8.366;2024-01-15T07:35:04;0.00;99.90
33067;DHT22;19428;49.024;8.366;2024-01-15T07:37:31;0.00;99.90
33067;DHT22;19428;49.024;8.366;2024-01-15T07:39:56;0.00;99.90
33067;DHT22;19428;49.024;8.366;2024-01-15T07:42:22;0.00;99.90
33067;DHT22;19428;49.024;8.366;2024-01-15T07:44:47;0.00;99.90
33067;DHT22;19428;49.024;8.366;2024-01-15T07:47:13;0.00;99.90
33067;DHT22;19428;49.024;8.366;2024-01-15T07:49:39;0.10;99.90
33067;DHT22;19428;49.024;8.366;2024-01-15T07:52:04;0.10;99.90
33067;DHT22;19428;49.024;8.366;2024-01-15T07:54:31;0.10;99.90
33067;DHT22;19428;49.024;8.366;2024-01-15T07:56:58;0.10;99.90
33067;DHT22;19428;49.024;8.366;2024-01-15T07:59:25;0.10;99.90
33067;DHT22;19428;49.024;8.366;2024-01-15T08:01:51;0.10;99.90
33067;DHT22;19428;49.024;8.366;2024-01-15T08:04:17;0.10;99.90
33067;DHT22;19428;49.024;8.366;2024-01-15T08:06:43;0.10;99.90
33067;DHT22;19428;49.024;8.366;2024-01-15T08:09:08;0.00;99.90
33067;DHT22;19428;49.024;8.366;2024-01-15T08:11:34;0.10;99.90
33067;DHT22;19428;49.024;8.366;2024-01-15T08:14:00;0.20;99.90
33067;DHT22;19428;49.024;8.366;2024-01-15T08:16:26;0.00;99.90
33067;DHT22;19428;49.024;8.366;2024-01-15T08:18:53;0.00;99.90
33067;DHT22;19428;49.024;8.366;2024-01-15T08:21:18;0.10;99.90
33067;DHT22;19428;49.024;8.366;2024-01-15T08:23:44;0.20;99.90
33067;DHT22;19428;49.024;8.366;2024-01-15T08:26:10;0.10;99.90
33067;DHT22;19428;49.024;8.366;2024-01-15T08:28:36;0.10;99.90
33067;DHT22;19428;49.024;8.366;2024-01-15T08:31:01;0.10;99.90
33067;DHT22;19428;49.024;8.366;2024-01-15T08:33:28;0.10;99.90
33067;DHT22;19428;49.024;8.366;2024-01-15T08:35:54;0.20;99.90
33067;DHT22;19428;49.024;8.366;2024-01-15T08:38:19;0.20;99.90
33067;DHT22;19428;49.024;8.366;2024-01-15T08:40:45;0.20;99.90
33067;DHT22;19428;49.024;8.366;2024-01-15T08:43:10;0.20;99.90
33067;DHT22;19428;49.024;8.366;2024-01-15T08:45:36;0.30;99.90
33067;DHT22;19428;49.024;8.366;2024-01-15T08:48:01;0.30;99.90
33067;DHT22;19428;49.024;8.366;2024-01-15T08:50:27;0.30;99.90
33067;DHT22;19428;49.024;8.366;2024-01-15T08:52:53;0.30;99.90
33067;DHT22;19428;49.024;8.366;2024-01-15T08:55:18;0.30;99.90
33067;DHT22;19428;49.024;8.366;2024-01-15T08:57:44;0.30;99.90
33067;DHT22;19428;49.024;8.366;2024-01-15T09:00:10;0.30;99.90
33067;DHT22;19428;49.024;8.366;2024-01-15T09:02:36;0.40;99.90
33067;DHT22;19428;49.024;8.366;2024-01-15T09:05:02;0.40;99.90
33067;DHT22;19428;49.024;8.366;2024-01-15T09:07:29;0.40;99.90
33067;DHT22;19428;49.024;8.366;2024-01-15T09:09:55;0.50;99.90
33067;DHT22;19428;49.024;8.366;2024-01-15T09:12:20;0.40;99.90
33067;DHT22;19428;49.024;8.366;2024-01-15T09:14:47;0.50;99.90
33067;DHT22;19428;49.024;8.366;2024-01-15T09:17:13;0.50;99.90
33067;DHT22;19428;49.024;8.366;2024-01-15T09:19:38;0.50;99.90
33067;DHT22;19428;49.024;8.366;2024-01-15T09:22:07;0.60;99.90
33067;DHT22;19428;49.024;8.366;2024-01-15T09:24:32;0.60;99.90
33067;DHT22;19428;49.024;8.366;2024-01-15T09:26:58;0.60;99.90
33067;DHT22;19428;49.024;8.366;2024-01-15T09:29:23;0.60;99.90
33067;DHT22;19428;49.024;8.366;2024-01-15T09:31:50;0.60;99.90
33067;DHT22;19428;49.024;8.366;2024-01-15T09:34:16;0.60;99.90
33067;DHT22;19428;49.024;8.366;2024-01-15T09:36:42;0.60;99.90
33067;DHT22;19428;49.024;8.366;2024-01-15T09:39:08;0.60;99.90
33067;DHT22;19428;49.024;8.366;2024-01-15T09:41:37;0.70;99.90
33067;DHT22;19428;49.024;8.366;2024-01-15T09:44:06;0.70;99.90
33067;DHT22;19428;49.024;8.366;2024-01-15T09:46:35;0.70;99.90
33067;DHT22;19428;49.024;8.366;2024-01-15T09:49:01;0.70;99.90
33067;DHT22;19428;49.024;8.366;2024-01-15T09:51:31;0.80;99.90
33067;DHT22;19428;49.024;8.366;2024-01-15T09:53:57;0.80;99.90
33067;DHT22;19428;49.024;8.366;2024-01-15T09:56:23;0.80;99.90
33067;DHT22;19428;49.024;8.366;2024-01-15T09:58:50;0.80;99.90
33067;DHT22;19428;49.024;8.366;2024-01-15T10:01:20;0.70;99.90
33067;DHT22;19428;49.024;8.366;2024-01-15T10:03:46;0.70;99.90
33067;DHT22;19428;49.024;8.366;2024-01-15T10:06:16;0.60;99.90
33067;DHT22;19428;49.024;8.366;2024-01-15T10:08:49;0.60;99.90
33067;DHT22;19428;49.024;8.366;2024-01-15T10:11:15;0.60;99.90
33067;DHT22;19428;49.024;8.366;2024-01-15T10:13:44;0.60;99.90
33067;DHT22;19428;49.024;8.366;2024-01-15T10:16:10;0.60;99.90
33067;DHT22;19428;49.024;8.366;2024-01-15T10:18:36;0.60;99.90
33067;DHT22;19428;49.024;8.366;2024-01-15T10:21:03;0.60;99.90
33067;DHT22;19428;49.024;8.366;2024-01-15T10:23:29;0.50;99.90
33067;DHT22;19428;49.024;8.366;2024-01-15T10:25:57;0.50;99.90
33067;DHT22;19428;49.024;8.366;2024-01-15T10:28:26;0.50;99.90
33067;DHT22;19428;49.024;8.366;2024-01-15T10:30:56;0.50;99.90
33067;DHT22;19428;49.024;8.366;2024-01-15T10:33:22;0.40;99.90
33067;DHT22;19428;49.024;8.366;2024-01-15T10:35:54;0.50;99.90
33067;DHT22;19428;49.024;8.366;2024-01-15T10:38:21;0.50;99.90
33067;DHT22;19428;49.024;8.366;2024-01-15T10:40:50;0.50;99.90
33067;DHT22;19428;49.024;8.366;2024-01-15T10:43:16;0.50;99.90
33067;DHT22;19428;49.024;8.366;2024-01-15T10:45:46;0.50;99.90
33067;DHT22;19428;49.024;8.366;2024-01-15T10:48:12;0.50;99.90
33067;DHT22;19428;49.024;8.366;2024-01-15T10:50:38;0.50;99.90
33067;DHT22;19428;49.024;8.366;2024-01-15T10:53:04;0.60;99.90
33067;DHT22;19428;49.024;8.366;2024-01-15T10:55:34;0.50;99.90
33067;DHT22;19428;49.024;8.366;2024-01-15T10:58:01;0.60;99.90
33067;DHT22;19428;49.024;8.366;2024-01-15T11:00:29;0.60;99.90
33067;DHT22;19428;49.024;8.366;2024-01-15T11:02:55;0.70;99.90
33067;DHT22;19428;49.024;8.366;2024-01-15T11:05:21;0.70;99.90
33067;DHT22;19428;49.024;8.366;2024-01-15T11:07:49;0.70;99.90
33067;DHT22;19428;49.024;8.366;2024-01-15T11:10:45;0.70;99.90
33067;DHT22;19428;49.024;8.366;2024-01-15T11:13:19;0.70;99.90
33067;DHT22;19428;49.024;8.366;2024-01-15T11:18:23;0.70;99.90
33067;DHT22;19428;49.024;8.366;2024-01-15T11:23:44;0.80;99.90
33067;DHT22;19428;49.024;8.366;2024-01-15T11:26:37;0.70;99.90
33067;DHT22;19428;49.024;8.366;2024-01-15T11:32:07;0.70;99.90
33067;DHT22;19428;49.024;8.366;2024-01-15T11:37:17;0.80;99.90
33067;DHT22;19428;49.024;8.366;2024-01-15T11:39:43;0.80;99.90
33067;DHT22;19428;49.024;8.366;2024-01-15T11:42:13;0.80;99.90
33067;DHT22;19428;49.024;8.366;2024-01-15T11:44:39;0.80;99.90
33067;DHT22;19428;49.024;8.366;2024-01-15T11:47:06;0.90;99.90
33067;DHT22;19428;49.024;8.366;2024-01-15T11:52:22;0.90;99.90
33067;DHT22;19428;49.024;8.366;2024-01-15T11:54:55;0.90;99.90
33067;DHT22;19428;49.024;8.366;2024-01-15T11:57:52;1.00;99.90
33067;DHT22;19428;49.024;8.366;2024-01-15T12:00:20;0.90;99.90
33067;DHT22;19428;49.024;8.366;2024-01-15T12:02:47;1.00;99.90
33067;DHT22;19428;49.024;8.366;2024-01-15T12:05:15;1.00;99.90
33067;DHT22;19428;49.024;8.366;2024-01-15T12:07:48;1.00;99.90
33067;DHT22;19428;49.024;8.366;2024-01-15T12:10:17;1.00;99.90
33067;DHT22;19428;49.024;8.366;2024-01-15T12:13:00;1.10;99.90
33067;DHT22;19428;49.024;8.366;2024-01-15T12:15:29;1.10;99.90
33067;DHT22;19428;49.024;8.366;2024-01-15T12:18:00;1.10;99.90
33067;DHT22;19428;49.024;8.366;2024-01-15T12:20:28;1.10;99.90
33067;DHT22;19428;49.024;8.366;2024-01-15T12:22:54;1.20;99.90
33067;DHT22;19428;49.024;8.366;2024-01-15T12:25:26;1.20;99.90
33067;DHT22;19428;49.024;8.366;2024-01-15T12:27:53;1.20;99.90
33067;DHT22;19428;49.024;8.366;2024-01-15T12:30:19;1.20;99.90
33067;DHT22;19428;49.024;8.366;2024-01-15T12:32:45;1.20;99.90
33067;DHT22;19428;49.024;8.366;2024-01-15T12:35:12;1.30;99.90
33067;DHT22;19428;49.024;8.366;2024-01-15T12:37:39;1.30;99.90
33067;DHT22;19428;49.024;8.366;2024-01-15T12:40:06;1.30;99.90
33067;DHT22;19428;49.024;8.366;2024-01-15T12:42:33;1.30;99.90
33067;DHT22;19428;49.024;8.366;2024-01-15T12:45:00;1.30;99.90
33067;DHT22;19428;49.024;8.366;2024-01-15T12:47:25;1.40;99.90
33067;DHT22;19428;49.024;8.366;2024-01-15T12:49:52;1.40;99.90
33067;DHT22;19428;49.024;8.366;2024-01-15T12:52:21;1.40;99.90
33067;DHT22;19428;49.024;8.366;2024-01-15T12:54:49;1.30;99.90
33067;DHT22;19428;49.024;8.366;2024-01-15T12:57:16;1.40;99.90
33067;DHT22;19428;49.024;8.366;2024-01-15T12:59:43;1.40;99.90
33067;DHT22;19428;49.024;8.366;2024-01-15T13:02:10;1.40;99.90
33067;DHT22;19428;49.024;8.366;2024-01-15T13:04:36;1.50;99.90
33067;DHT22;19428;49.024;8.366;2024-01-15T13:07:01;1.50;99.90
33067;DHT22;19428;49.024;8.366;2024-01-15T13:09:27;1.50;99.90
33067;DHT22;19428;49.024;8.366;2024-01-15T13:11:53;1.50;99.90
33067;DHT22;19428;49.024;8.366;2024-01-15T13:14:18;1.60;99.90
33067;DHT22;19428;49.024;8.366;2024-01-15T13:16:44;1.60;99.90
33067;DHT22;19428;49.024;8.366;2024-01-15T13:19:10;1.50;99.90
33067;DHT22;19428;49.024;8.366;2024-01-15T13:21:37;1.60;99.90
33067;DHT22;19428;49.024;8.366;2024-01-15T13:24:02;1.60;99.90
33067;DHT22;19428;49.024;8.366;2024-01-15T13:26:33;1.60;99.90
33067;DHT22;19428;49.024;8.366;2024-01-15T13:29:05;1.70;99.90
33067;DHT22;19428;49.024;8.366;2024-01-15T13:31:32;1.70;99.90
33067;DHT22;19428;49.024;8.366;2024-01-15T13:33:57;1.70;99.90
33067;DHT22;19428;49.024;8.366;2024-01-15T13:36:26;1.70;99.90
33067;DHT22;19428;49.024;8.366;2024-01-15T13:38:52;1.70;99.90
33067;DHT22;19428;49.024;8.366;2024-01-15T13:41:19;1.70;99.90
33067;DHT22;19428;49.024;8.366;2024-01-15T13:43:49;1.80;99.90
33067;DHT22;19428;49.024;8.366;2024-01-15T13:46:16;1.70;99.90
33067;DHT22;19428;49.024;8.366;2024-01-15T13:48:42;1.80;99.90
33067;DHT22;19428;49.024;8.366;2024-01-15T13:51:08;1.70;99.90
33067;DHT22;19428;49.024;8.366;2024-01-15T13:53:34;1.70;99.90
33067;DHT22;19428;49.024;8.366;2024-01-15T13:55:59;1.70;99.90
33067;DHT22;19428;49.024;8.366;2024-01-15T13:58:25;1.70;99.90
33067;DHT22;19428;49.024;8.366;2024-01-15T14:00:51;1.70;99.90
33067;DHT22;19428;49.024;8.366;2024-01-15T14:03:17;1.70;99.90
33067;DHT22;19428;49.024;8.366;2024-01-15T14:05:44;1.70;99.90
33067;DHT22;19428;49.024;8.366;2024-01-15T14:08:10;1.70;99.90
33067;DHT22;19428;49.024;8.366;2024-01-15T14:10:35;1.70;99.90
33067;DHT22;19428;49.024;8.366;2024-01-15T14:13:01;1.70;99.90
33067;DHT22;19428;49.024;8.366;2024-01-15T14:15:27;1.80;99.90
33067;DHT22;19428;49.024;8.366;2024-01-15T14:17:52;1.70;99.90
33067;DHT22;19428;49.024;8.366;2024-01-15T14:20:18;1.80;99.90
33067;DHT22;19428;49.024;8.366;2024-01-15T14:22:43;1.70;99.90
33067;DHT22;19428;49.024;8.366;2024-01-15T14:25:09;1.80;99.90
33067;DHT22;19428;49.024;8.366;2024-01-15T14:27:35;1.80;99.90
33067;DHT22;19428;49.024;8.366;2024-01-15T14:30:02;1.80;99.90
33067;DHT22;19428;49.024;8.366;2024-01-15T14:32:27;1.80;99.90
33067;DHT22;19428;49.024;8.366;2024-01-15T14:34:53;1.80;99.90
33067;DHT22;19428;49.024;8.366;2024-01-15T14:37:18;1.90;99.90
33067;DHT22;19428;49.024;8.366;2024-01-15T14:39:44;1.80;99.90
33067;DHT22;19428;49.024;8.366;2024-01-15T14:42:09;1.80;99.90
33067;DHT22;19428;49.024;8.366;2024-01-15T14:44:36;1.90;99.90
33067;DHT22;19428;49.024;8.366;2024-01-15T14:47:03;1.80;99.90
33067;DHT22;19428;49.024;8.366;2024-01-15T14:49:29;1.90;99.90
33067;DHT22;19428;49.024;8.366;2024-01-15T14:51:54;1.80;99.90
33067;DHT22;19428;49.024;8.366;2024-01-15T14:54:20;1.90;99.90
33067;DHT22;19428;49.024;8.366;2024-01-15T14:56:46;1.90;99.90
33067;DHT22;19428;49.024;8.366;2024-01-15T14:59:11;1.90;99.90
33067;DHT22;19428;49.024;8.366;2024-01-15T15:01:37;1.90;99.90
33067;DHT22;19428;49.024;8.366;2024-01-15T15:04:03;1.90;99.90
33067;DHT22;19428;49.024;8.366;2024-01-15T15:06:29;1.90;99.90
33067;DHT22;19428;49.024;8.366;2024-01-15T15:08:54;1.90;99.90
33067;DHT22;19428;49.024;8.366;2024-01-15T15:11:20;1.90;99.90
33067;DHT22;19428;49.024;8.366;2024-01-15T15:13:48;1.90;99.90
33067;DHT22;19428;49.024;8.366;2024-01-15T15:16:15;1.90;99.90
33067;DHT22;19428;49.024;8.366;2024-01-15T15:18:40;1.90;99.90
33067;DHT22;19428;49.024;8.366;2024-01-15T15:21:08;1.90;99.90
33067;DHT22;19428;49.024;8.366;2024-01-15T15:23:33;1.90;99.90
33067;DHT22;19428;49.024;8.366;2024-01-15T15:25:59;1.90;99.90
33067;DHT22;19428;49.024;8.366;2024-01-15T15:28:25;1.80;99.90
33067;DHT22;19428;49.024;8.366;2024-01-15T15:30:50;1.80;99.90
33067;DHT22;19428;49.024;8.366;2024-01-15T15:33:16;1.90;99.90
33067;DHT22;19428;49.024;8.366;2024-01-15T15:35:43;1.90;99.90
33067;DHT22;19428;49.024;8.366;2024-01-15T15:38:09;1.80;99.90
33067;DHT22;19428;49.024;8.366;2024-01-15T15:40:34;1.80;99.90
33067;DHT22;19428;49.024;8.366;2024-01-15T15:43:00;1.80;99.90
33067;DHT22;19428;49.024;8.366;2024-01-15T15:45:25;1.80;99.90
33067;DHT22;19428;49.024;8.366;2024-01-15T15:47:52;1.90;99.90
33067;DHT22;19428;49.024;8.366;2024-01-15T15:50:17;1.80;99.90